Saint Onge, South Dakota
Current Conditions -  °F | °C
As of 2:15 PM on Friday 24 Oct 2014 (Local Time) from KSPF Reporting Station
Clear Clear  
Wind Chill: 64°   Ceiling: Unl
Heat Index: 64°   Visibility: 10mi
Dew Point: 37°   Wind: 8mph
Humidity: 37%   Direction: 300°WNW
Pressure: 30.05"   Gusts: NA
Location:  44.55°N, 103.72°W
Report Text: KSPF 242015Z AUTO 30007KT 10SM CLR 18/03 A3005 RMK AO2
Loading
Personal Weather Stations






























Interactive Weather Map New forecast layout! Learn more

10-Day Weather Forecast

Advertisements
Track Severe Weather on mobile